Terminal Aerodrome Forecast
Issued by NWS Mt. Holly, NJ

Current Version | Previous Version | Text Only | Print | Product List | Glossary On
Versions: 1 2 3 4 5 6 7 8 9 10 11 12 13 14 15 16 17 18 19 20 21 22 23 24 25 26 27 28 29 30 31 32 33 34 35 36 37 38 39 40 41 42 43 44 45 46 47 48 49 50
000
FTUS41 KPHI 210830 AAL
TAFPHL
TAF AMD
KPHL 210830Z 2109/2212 VRB02KT 1/2SM FG VV002
      TEMPO 2109/2112 1/4SM FG VV001
     FM211300 15003KT 2SM BR OVC008
     FM211500 19005KT 6SM BR BKN020
     FM211700 22008KT P6SM FEW030 BKN200=

USA.gov is the U.S. government's official web portal to all federal, state and local government web resources and services.